createdAt,value
2023-04-28T00:01:21.727Z,94848.72
2023-04-28T00:03:23.923Z,94855.72
2023-04-28T00:05:25.825Z,94852.13
2023-04-28T00:07:27.463Z,94848.03
2023-04-28T00:09:29.116Z,94855.72
2023-04-28T00:11:30.743Z,94849.25
2023-04-28T00:13:32.329Z,94862.44
2023-04-28T00:15:33.983Z,94860.38
2023-04-28T00:17:35.675Z,94856.69
2023-04-28T00:19:38.794Z,94852.03
2023-04-28T00:21:40.397Z,94858.34
2023-04-28T00:23:42.014Z,94851.59
2023-04-28T00:25:43.642Z,94858.59
2023-04-28T00:27:45.249Z,94858.06
2023-04-28T00:29:47.251Z,94857.50
2023-04-28T00:31:48.983Z,94851.47
2023-04-28T00:33:50.710Z,94857.22
2023-04-28T00:35:59.792Z,94857.78
2023-04-28T00:38:01.404Z,94859.44
2023-04-28T00:40:03.209Z,94869.59
2023-04-28T00:42:04.906Z,94871.09
2023-04-28T00:44:06.661Z,94868.50
2023-04-28T00:46:08.266Z,94869.44
2023-04-28T00:48:09.860Z,94867.41
2023-04-28T00:50:11.539Z,94867.25
2023-04-28T00:52:13.211Z,94873.84
2023-04-28T00:54:15.360Z,94872.19
2023-04-28T00:56:17.241Z,94875.78
2023-04-28T00:58:19.533Z,94869.75
2023-04-28T01:00:21.444Z,94868.75
2023-04-28T01:02:23.199Z,94869.44
2023-04-28T01:04:25.787Z,94874.13
2023-04-28T01:06:28.700Z,94886.59
2023-04-28T01:08:31.460Z,94878.19
2023-04-28T01:10:33.084Z,94882.88
2023-04-28T01:12:34.737Z,94873.69
2023-04-28T01:14:36.404Z,94879.03
2023-04-28T01:16:38.814Z,94882.59
2023-04-28T01:18:43.328Z,94879.16
2023-04-28T01:20:45.018Z,94885.22
2023-04-28T01:22:46.921Z,94878.47
2023-04-28T01:24:48.523Z,94883.28
2023-04-28T01:26:50.183Z,94885.06
2023-04-28T01:28:51.898Z,94882.88
2023-04-28T01:30:53.538Z,94879.06
2023-04-28T01:32:55.252Z,94883.41
2023-04-28T01:34:56.882Z,94880.28
2023-04-28T01:36:58.434Z,94885.09
2023-04-28T01:39:00.046Z,94878.38
2023-04-28T01:41:02.662Z,94884.81
2023-04-28T01:43:04.368Z,94881.22
2023-04-28T01:45:06.490Z,94876.94
2023-04-28T01:47:08.083Z,94878.06
2023-04-28T01:49:09.765Z,94881.59
2023-04-28T01:51:11.389Z,94873.91
2023-04-28T01:53:12.969Z,94877.19
2023-04-28T01:55:14.630Z,94874.59
2023-04-28T01:57:17.659Z,94880.09
2023-04-28T01:59:20.535Z,94881.34
2023-04-28T02:01:22.187Z,94885.72
2023-04-28T02:03:23.947Z,94886.41
2023-04-28T02:05:25.985Z,94875.13
2023-04-28T02:07:27.527Z,94888.44
2023-04-28T02:09:29.159Z,94880.03
2023-04-28T02:11:30.835Z,94893.34
2023-04-28T02:13:32.392Z,94894.69
2023-04-28T02:15:35.340Z,94886.19
2023-04-28T02:17:36.974Z,94889.06
2023-04-28T02:19:38.750Z,94893.06
2023-04-28T02:21:42.086Z,94894.84
2023-04-28T02:23:43.727Z,94893.34
2023-04-28T02:25:45.430Z,94899.38
2023-04-28T02:27:47.065Z,94893.63
2023-04-28T02:29:49.051Z,94895.31
2023-04-28T02:31:50.667Z,94898.44
2023-04-28T02:33:53.066Z,94902.69
2023-04-28T02:36:04.009Z,94900.34
2023-04-28T02:38:05.748Z,94904.59
2023-04-28T02:40:07.997Z,94906.38
2023-04-28T02:42:09.573Z,94901.84
2023-04-28T02:44:11.325Z,94901.72
2023-04-28T02:46:12.977Z,94909.78
2023-04-28T02:48:14.809Z,94913.09
2023-04-28T02:50:16.437Z,94913.09
2023-04-28T02:52:18.138Z,94904.03
2023-04-28T02:54:27.544Z,94905.09
2023-04-28T02:56:30.169Z,94909.78
2023-04-28T02:58:31.744Z,94919.22
2023-04-28T03:00:33.498Z,94916.38
2023-04-28T03:02:35.133Z,94921.25
2023-04-28T03:04:36.952Z,94919.22
2023-04-28T03:06:38.671Z,94920.19
2023-04-28T03:08:40.402Z,94926.22
2023-04-28T03:10:41.988Z,94923.50
2023-04-28T03:12:43.601Z,94914.41
2023-04-28T03:14:45.231Z,94922.88
2023-04-28T03:16:46.882Z,94925.63
2023-04-28T03:18:48.469Z,94927.13
2023-04-28T03:20:50.352Z,94930.53
2023-04-28T03:22:51.981Z,94931.03
2023-04-28T03:24:53.522Z,94938.03
2023-04-28T03:26:55.104Z,94941.38
2023-04-28T03:28:57.004Z,94939.44
2023-04-28T03:30:58.601Z,94943.56
2023-04-28T03:33:00.268Z,94949.16
2023-04-28T03:35:02.000Z,94955.88
2023-04-28T03:37:03.629Z,94955.06
2023-04-28T03:39:05.266Z,94955.06
2023-04-28T03:41:06.916Z,94952.63
2023-04-28T03:43:08.579Z,94958.91
2023-04-28T03:45:11.117Z,94961.41
2023-04-28T03:47:12.658Z,94967.88
2023-04-28T03:49:14.263Z,94972.69
2023-04-28T03:51:15.958Z,94969.00
2023-04-28T03:53:17.543Z,94975.72
2023-04-28T03:55:19.165Z,94975.13
2023-04-28T03:57:20.746Z,94976.00
2023-04-28T03:59:22.361Z,94977.22
2023-04-28T04:01:25.075Z,94985.63
2023-04-28T04:03:28.132Z,94984.63
2023-04-28T04:05:30.033Z,94986.53
2023-04-28T04:07:31.715Z,94991.22
2023-04-28T04:09:33.302Z,94983.69
2023-04-28T04:11:34.887Z,95000.88
2023-04-28T04:13:36.495Z,94995.41
2023-04-28T04:15:38.156Z,95003.34
2023-04-28T04:17:39.795Z,94996.44
2023-04-28T04:19:41.564Z,94991.59
2023-04-28T04:21:43.224Z,94998.09
2023-04-28T04:23:44.797Z,95002.25
2023-04-28T04:25:46.454Z,95007.59
2023-04-28T04:27:48.091Z,95000.75
2023-04-28T04:29:49.651Z,95003.25
2023-04-28T04:31:51.383Z,95012.03
2023-04-28T04:33:53.412Z,95010.25
2023-04-28T04:35:55.025Z,95002.44
2023-04-28T04:37:56.796Z,95014.81
2023-04-28T04:39:58.440Z,95011.00
2023-04-28T04:42:05.149Z,95010.56
2023-04-28T04:44:14.083Z,95010.44
2023-04-28T04:46:15.873Z,95006.31
2023-04-28T04:48:18.157Z,95022.47
2023-04-28T04:50:19.969Z,95025.25
2023-04-28T04:52:21.595Z,95026.34
2023-04-28T04:54:23.276Z,95023.28
2023-04-28T04:56:24.965Z,95030.81
2023-04-28T04:58:26.855Z,95033.19
2023-04-28T05:00:28.699Z,95030.59
2023-04-28T05:02:30.537Z,95033.59
2023-04-28T05:04:32.317Z,95040.28
2023-04-28T05:06:34.600Z,95031.78
2023-04-28T05:08:36.244Z,95037.72
2023-04-28T05:10:37.869Z,95037.16
2023-04-28T05:12:39.546Z,95044.09
2023-04-28T05:14:41.099Z,95039.59
2023-04-28T05:16:43.033Z,95033.53
2023-04-28T05:18:44.874Z,95055.94
2023-04-28T05:20:46.525Z,95046.81
2023-04-28T05:22:48.165Z,95039.28
2023-04-28T05:24:49.856Z,95042.88
2023-04-28T05:26:52.187Z,95052.00
2023-04-28T05:28:54.469Z,95044.50
2023-04-28T05:30:56.095Z,95045.59
2023-04-28T05:32:57.759Z,95054.56
2023-04-28T05:34:59.382Z,95044.00
2023-04-28T05:37:01.213Z,95042.34
2023-04-28T05:39:02.890Z,95040.66
2023-04-28T05:41:04.611Z,95038.06
2023-04-28T05:43:06.217Z,95038.38
2023-04-28T05:45:08.464Z,95040.91
2023-04-28T05:47:10.114Z,95037.91
2023-04-28T05:49:11.848Z,95044.25
2023-04-28T05:51:13.454Z,95039.16
2023-04-28T05:53:15.044Z,95044.47
2023-04-28T05:55:16.654Z,95045.75
2023-04-28T05:57:18.331Z,95045.91
2023-04-28T05:59:19.929Z,95049.00
2023-04-28T06:01:23.111Z,95042.19
2023-04-28T06:03:25.012Z,95052.97
2023-04-28T06:05:27.087Z,95045.31
2023-04-28T06:07:28.829Z,95039.19
2023-04-28T06:09:30.817Z,95052.63
2023-04-28T06:11:32.395Z,95052.72
2023-04-28T06:13:33.970Z,95051.56
2023-04-28T06:15:36.078Z,95051.63
2023-04-28T06:17:39.099Z,95043.63
2023-04-28T06:19:40.788Z,95045.34
2023-04-28T06:21:42.437Z,95044.53
2023-04-28T06:23:44.067Z,95054.22
2023-04-28T06:25:45.733Z,95055.38
2023-04-28T06:27:47.546Z,95054.59
2023-04-28T06:29:49.098Z,95051.09
2023-04-28T06:31:51.398Z,95051.41
2023-04-28T06:33:53.028Z,95051.22
2023-04-28T06:35:54.644Z,95051.81
2023-04-28T06:37:56.228Z,95050.31
2023-04-28T06:39:57.819Z,95045.91
2023-04-28T06:41:59.429Z,95046.94
2023-04-28T06:44:01.047Z,95044.56
2023-04-28T06:46:03.051Z,95041.25
2023-04-28T06:48:05.360Z,95035.63
2023-04-28T06:50:07.780Z,95035.63
2023-04-28T06:52:09.610Z,95040.84
2023-04-28T06:54:11.779Z,95044.81
2023-04-28T06:56:14.290Z,95039.16
2023-04-28T06:58:16.389Z,95039.53
2023-04-28T07:00:18.233Z,95033.13
2023-04-28T07:02:19.949Z,95040.94
2023-04-28T07:04:21.850Z,95039.63
2023-04-28T07:06:24.011Z,95031.88
2023-04-28T07:08:25.979Z,95038.38
2023-04-28T07:10:27.777Z,95040.72
2023-04-28T07:12:29.472Z,95029.19
2023-04-28T07:14:31.110Z,95032.28
2023-04-28T07:16:32.737Z,95034.75
2023-04-28T07:18:34.388Z,95031.06
2023-04-28T07:20:35.996Z,95038.53
2023-04-28T07:22:38.617Z,95036.31
2023-04-28T07:24:40.313Z,95030.81
2023-04-28T07:26:41.950Z,95036.50
2023-04-28T07:28:44.209Z,95027.22
2023-04-28T07:30:45.994Z,95027.34
2023-04-28T07:32:48.931Z,95018.41
2023-04-28T07:34:50.534Z,95015.13
2023-04-28T07:36:52.388Z,95021.66
2023-04-28T07:38:54.115Z,95030.84
2023-04-28T07:40:55.808Z,95025.63
2023-04-28T07:42:57.420Z,95024.94
2023-04-28T07:44:59.056Z,95021.91
2023-04-28T07:47:01.100Z,95020.72
2023-04-28T07:49:03.147Z,95015.56
2023-04-28T07:51:04.800Z,95023.94
2023-04-28T07:53:06.407Z,95012.31
2023-04-28T07:55:08.238Z,95012.09
2023-04-28T07:57:10.801Z,95009.66
2023-04-28T07:59:12.506Z,95014.16
2023-04-28T08:01:14.173Z,95017.84
2023-04-28T08:03:16.180Z,95013.63
2023-04-28T08:05:18.346Z,95021.34
2023-04-28T08:07:20.240Z,95017.28
2023-04-28T08:09:21.875Z,95017.16
2023-04-28T08:11:23.592Z,95017.31
2023-04-28T08:13:25.350Z,95013.78
2023-04-28T08:15:27.696Z,95014.09
2023-04-28T08:17:29.459Z,95032.91
2023-04-28T08:19:31.248Z,95010.25
2023-04-28T08:21:32.905Z,95014.97
2023-04-28T08:23:34.520Z,95013.75
2023-04-28T08:25:36.282Z,95021.22
2023-04-28T08:27:39.957Z,95012.94
2023-04-28T08:29:42.362Z,95012.69
2023-04-28T08:31:44.088Z,95011.50
2023-04-28T08:33:48.632Z,94999.59
2023-04-28T08:35:51.197Z,94999.88
2023-04-28T08:37:53.514Z,95003.56
2023-04-28T08:40:02.117Z,94999.34
2023-04-28T08:42:07.452Z,95000.81
2023-04-28T08:44:12.416Z,95005.16
2023-04-28T08:46:14.885Z,95013.50
2023-04-28T08:48:21.676Z,95009.41
2023-04-28T08:50:23.664Z,94996.00
2023-04-28T08:52:26.161Z,94993.22
2023-04-28T08:54:32.000Z,94996.50
2023-04-28T08:56:34.959Z,94998.69
2023-04-28T08:58:37.562Z,94981.97
2023-04-28T09:00:39.209Z,94983.19
2023-04-28T09:02:43.925Z,94990.53
2023-04-28T09:04:47.799Z,95000.72
2023-04-28T09:06:49.563Z,94996.19
2023-04-28T09:08:51.191Z,94992.72
2023-04-28T09:11:19.418Z,94986.09
2023-04-28T09:13:25.675Z,94981.09
2023-04-28T09:15:27.807Z,94974.75
2023-04-28T09:17:29.509Z,94988.94
2023-04-28T09:19:38.709Z,94975.16
2023-04-28T09:22:24.070Z,94973.16
2023-04-28T09:24:31.461Z,94961.41
2023-04-28T09:26:50.677Z,94966.53
2023-04-28T09:28:57.295Z,94957.78
2023-04-28T09:30:59.092Z,94968.03
2023-04-28T09:33:09.987Z,94973.09
2023-04-28T09:35:12.995Z,94966.91
2023-04-28T09:37:19.961Z,94966.44
2023-04-28T09:39:31.694Z,94957.81
2023-04-28T09:41:44.034Z,94957.53
2023-04-28T09:43:46.368Z,94951.03
2023-04-28T09:45:48.044Z,94949.22
2023-04-28T09:47:49.897Z,94946.53
2023-04-28T09:50:00.415Z,94933.75
2023-04-28T09:52:14.391Z,94939.84
2023-04-28T09:54:17.125Z,94952.69
2023-04-28T09:56:21.305Z,94943.84
2023-04-28T09:58:24.528Z,94946.53
2023-04-28T10:00:26.422Z,94944.44
2023-04-28T10:04:35.048Z,94926.69
2023-04-28T10:06:37.068Z,94929.78
2023-04-28T10:08:40.234Z,94927.03
2023-04-28T10:10:42.277Z,94933.25
2023-04-28T10:12:44.969Z,94919.66
2023-04-28T10:14:50.258Z,94914.88
2023-04-28T10:16:52.150Z,94916.53
2023-04-28T10:18:54.263Z,94912.53
2023-04-28T10:21:03.208Z,94918.16
2023-04-28T10:23:07.775Z,94914.81
2023-04-28T10:25:12.472Z,94908.94
2023-04-28T10:27:14.652Z,94915.47
2023-04-28T10:29:16.528Z,94900.97
2023-04-28T10:31:21.315Z,94900.59
2023-04-28T10:33:25.604Z,94904.13
2023-04-28T10:35:27.449Z,94907.34
2023-04-28T10:38:06.507Z,94895.38
2023-04-28T10:40:31.560Z,94890.06
2023-04-28T10:42:56.765Z,94886.13
2023-04-28T10:44:58.416Z,94891.16
2023-04-28T10:47:04.408Z,94884.16
2023-04-28T10:49:06.330Z,94875.16
2023-04-28T10:51:08.014Z,94872.38
2023-04-28T10:53:09.635Z,94868.72
2023-04-28T10:55:36.358Z,94877.44
2023-04-28T10:57:38.092Z,94865.44
2023-04-28T10:59:39.717Z,94876.97
2023-04-28T11:01:42.589Z,94869.13
2023-04-28T11:03:47.231Z,94870.47
2023-04-28T11:06:31.741Z,94867.34
2023-04-28T11:08:33.508Z,94864.78
2023-04-28T11:11:13.060Z,94853.28
2023-04-28T11:13:34.304Z,94862.91
2023-04-28T11:15:36.108Z,94842.41
2023-04-28T11:17:42.115Z,94856.13
2023-04-28T11:19:45.423Z,94855.28
2023-04-28T11:21:48.462Z,94843.69
2023-04-28T11:23:50.536Z,94842.75
2023-04-28T11:25:58.217Z,94846.63
2023-04-28T11:28:07.308Z,94837.00
2023-04-28T11:30:30.181Z,94849.00
2023-04-28T11:32:36.676Z,94838.34
2023-04-28T11:34:38.453Z,94838.47
2023-04-28T11:36:41.081Z,94836.56
2023-04-28T11:38:45.720Z,94828.22
2023-04-28T11:40:59.607Z,94836.25
2023-04-28T11:43:01.895Z,94831.63
2023-04-28T11:45:04.573Z,94831.53
2023-04-28T11:47:07.411Z,94836.91
2023-04-28T11:49:09.342Z,94827.06
2023-04-28T11:51:11.750Z,94820.69
2023-04-28T11:53:13.385Z,94830.31
2023-04-28T11:55:17.229Z,94836.63
2023-04-28T11:57:20.513Z,94823.84
2023-04-28T11:59:27.197Z,94839.53
2023-04-28T12:01:29.205Z,94828.13
2023-04-28T12:03:30.876Z,94829.66
2023-04-28T12:05:35.714Z,94824.84
2023-04-28T12:07:43.221Z,94816.75
2023-04-28T12:09:46.570Z,94810.34
2023-04-28T12:11:55.834Z,94806.03
2023-04-28T12:14:07.732Z,94807.03
2023-04-28T12:16:09.602Z,94805.66
2023-04-28T12:18:12.038Z,94797.88
2023-04-28T12:20:35.205Z,94792.16
2023-04-28T12:22:48.381Z,94786.09
2023-04-28T12:25:09.216Z,94785.66
2023-04-28T12:27:16.229Z,94790.38
2023-04-28T12:29:39.978Z,94793.78
2023-04-28T12:31:50.408Z,94785.38
2023-04-28T12:33:52.017Z,94790.47
2023-04-28T12:35:57.096Z,94782.69
2023-04-28T12:37:59.118Z,94779.84
2023-04-28T12:40:02.501Z,94784.47
2023-04-28T12:42:04.219Z,94780.09
2023-04-28T12:44:05.742Z,94784.63
2023-04-28T12:46:08.792Z,94772.41
2023-04-28T12:48:11.087Z,94776.31
2023-04-28T12:50:12.717Z,94776.44
2023-04-28T12:52:14.326Z,94769.56
2023-04-28T12:54:16.247Z,94770.94
2023-04-28T12:56:17.905Z,94774.63
2023-04-28T12:58:19.487Z,94767.53
2023-04-28T13:00:23.486Z,94758.97
2023-04-28T13:02:25.429Z,94755.72
2023-04-28T13:04:27.742Z,94748.97
2023-04-28T13:06:29.647Z,94749.53
2023-04-28T13:08:34.094Z,94747.72
2023-04-28T13:10:35.735Z,94758.84
2023-04-28T13:12:37.375Z,94754.47
2023-04-28T13:14:39.053Z,94751.34
2023-04-28T13:16:40.706Z,94747.53
2023-04-28T13:18:42.429Z,94746.97
2023-04-28T13:20:44.306Z,94737.97
2023-04-28T13:22:45.891Z,94746.31
2023-04-28T13:24:50.793Z,94745.38
2023-04-28T13:26:52.588Z,94756.53
2023-04-28T13:28:54.177Z,94748.28
2023-04-28T13:30:56.235Z,94738.94
2023-04-28T13:32:58.103Z,94745.22
2023-04-28T13:34:59.751Z,94742.94
2023-04-28T13:37:01.403Z,94751.28
2023-04-28T13:39:03.139Z,94741.41
2023-04-28T13:41:04.940Z,94736.09
2023-04-28T13:43:06.595Z,94733.72
2023-04-28T13:45:08.473Z,94736.09
2023-04-28T13:47:11.127Z,94729.06
2023-04-28T13:49:13.033Z,94730.66
2023-04-28T13:51:14.671Z,94729.06
2023-04-28T13:53:17.255Z,94718.25
2023-04-28T13:55:18.905Z,94720.44
2023-04-28T13:57:20.556Z,94717.69
2023-04-28T13:59:22.651Z,94711.56
2023-04-28T14:01:25.289Z,94724.63
2023-04-28T14:03:27.917Z,94710.38
2023-04-28T14:05:31.615Z,94712.22
2023-04-28T14:07:40.823Z,94709.09
2023-04-28T14:09:42.990Z,94714.94
2023-04-28T14:11:44.920Z,94707.25
2023-04-28T14:13:46.763Z,94714.66
2023-04-28T14:15:58.372Z,94715.16
2023-04-28T14:18:01.878Z,94716.03
2023-04-28T14:20:04.217Z,94696.31
2023-04-28T14:22:05.946Z,94712.31
2023-04-28T14:24:07.694Z,94702.94
2023-04-28T14:26:09.520Z,94704.75
2023-04-28T14:28:11.768Z,94706.78
2023-04-28T14:30:14.274Z,94711.94
2023-04-28T14:32:17.145Z,94700.72
2023-04-28T14:34:18.779Z,94707.97
2023-04-28T14:36:20.687Z,94700.97
2023-04-28T14:38:22.304Z,94700.72
2023-04-28T14:40:23.942Z,94688.50
2023-04-28T14:42:33.164Z,94691.56
2023-04-28T14:44:34.960Z,94689.09
2023-04-28T14:46:36.708Z,94693.94
2023-04-28T14:48:38.405Z,94690.91
2023-04-28T14:50:42.121Z,94689.25
2023-04-28T14:52:44.145Z,94685.75
2023-04-28T14:54:46.405Z,94681.66
2023-04-28T14:56:51.543Z,94681.84
2023-04-28T14:58:53.112Z,94684.34
2023-04-28T15:00:54.934Z,94683.56
2023-04-28T15:02:56.692Z,94681.66
2023-04-28T15:04:58.766Z,94696.09
2023-04-28T15:07:01.270Z,94697.13
2023-04-28T15:09:02.940Z,94695.19
2023-04-28T15:11:04.530Z,94693.31
2023-04-28T15:13:09.077Z,94688.72
2023-04-28T15:15:11.274Z,94683.84
2023-04-28T15:17:13.013Z,94683.22
2023-04-28T15:19:15.357Z,94690.69
2023-04-28T15:21:16.984Z,94684.72
2023-04-28T15:23:19.879Z,94685.66
2023-04-28T15:25:21.919Z,94680.84
2023-04-28T15:27:23.957Z,94691.47
2023-04-28T15:29:25.650Z,94688.22
2023-04-28T15:31:28.324Z,94684.56
2023-04-28T15:33:30.011Z,94680.09
2023-04-28T15:35:32.714Z,94682.75
2023-04-28T15:37:45.073Z,94682.94
2023-04-28T15:39:49.747Z,94678.03
2023-04-28T15:41:52.380Z,94669.00
2023-04-28T15:43:55.886Z,94671.25
2023-04-28T15:45:57.678Z,94675.34
2023-04-28T15:47:59.329Z,94682.72
2023-04-28T15:50:01.016Z,94684.28
2023-04-28T15:52:02.618Z,94684.13
2023-04-28T15:54:04.395Z,94676.19
2023-04-28T15:56:06.492Z,94662.47
2023-04-28T15:58:08.788Z,94666.53
2023-04-28T16:00:11.431Z,94667.44
2023-04-28T16:02:13.168Z,94660.34
2023-04-28T16:04:14.868Z,94661.13
2023-04-28T16:06:16.906Z,94664.13
2023-04-28T16:08:19.548Z,94664.00
2023-04-28T16:10:21.186Z,94670.31
2023-04-28T16:12:22.784Z,94676.66
2023-04-28T16:14:24.442Z,94684.63
2023-04-28T16:16:26.148Z,94681.81
2023-04-28T16:18:27.985Z,94677.13
2023-04-28T16:20:30.022Z,94674.72
2023-04-28T16:22:32.073Z,94686.03
2023-04-28T16:24:35.244Z,94674.09
2023-04-28T16:26:36.783Z,94672.53
2023-04-28T16:28:38.380Z,94674.56
2023-04-28T16:30:39.928Z,94684.41
2023-04-28T16:32:41.720Z,94680.97
2023-04-28T16:34:43.435Z,94667.31
2023-04-28T16:36:45.186Z,94687.00
2023-04-28T16:38:46.793Z,94684.56
2023-04-28T16:40:49.181Z,94674.38
2023-04-28T16:42:50.832Z,94672.72
2023-04-28T16:44:53.063Z,94684.53
2023-04-28T16:46:55.126Z,94682.03
2023-04-28T16:48:56.740Z,94678.69
2023-04-28T16:50:58.310Z,94686.50
2023-04-28T16:52:59.937Z,94681.19
2023-04-28T16:55:01.540Z,94691.09
2023-04-28T16:57:04.193Z,94690.09
2023-04-28T16:59:05.921Z,94693.75
2023-04-28T17:01:08.102Z,94690.13
2023-04-28T17:03:09.935Z,94692.03
2023-04-28T17:05:11.703Z,94695.63
2023-04-28T17:07:13.288Z,94697.97
2023-04-28T17:09:15.029Z,94701.25
2023-04-28T17:11:17.852Z,94698.41
2023-04-28T17:13:19.500Z,94697.34
2023-04-28T17:15:21.303Z,94704.25
2023-04-28T17:17:23.009Z,94707.69
2023-04-28T17:19:24.604Z,94706.09
2023-04-28T17:21:29.161Z,94710.91
2023-04-28T17:23:30.746Z,94705.84
2023-04-28T17:25:32.428Z,94706.19
2023-04-28T17:27:33.991Z,94713.75
2023-04-28T17:29:35.791Z,94714.19
2023-04-28T17:31:39.018Z,94714.63
2023-04-28T17:33:41.336Z,94714.47
2023-04-28T17:35:42.932Z,94715.28
2023-04-28T17:37:44.646Z,94718.25
2023-04-28T17:39:46.262Z,94717.84
2023-04-28T17:41:47.840Z,94725.09
2023-04-28T17:43:51.635Z,94722.00
2023-04-28T17:45:56.299Z,94720.56
2023-04-28T17:48:00.562Z,94725.38
2023-04-28T17:50:02.736Z,94726.75
2023-04-28T17:52:04.322Z,94728.09
2023-04-28T17:54:09.542Z,94733.63
2023-04-28T17:56:11.596Z,94742.53
2023-04-28T17:58:13.130Z,94739.72
2023-04-28T18:00:15.024Z,94733.53
2023-04-28T18:02:18.444Z,94743.06
2023-04-28T18:04:20.252Z,94748.09
2023-04-28T18:06:22.477Z,94742.34
2023-04-28T18:08:24.154Z,94749.44
2023-04-28T18:10:28.129Z,94756.72
2023-04-28T18:12:29.885Z,94748.00
2023-04-28T18:14:31.856Z,94755.09
2023-04-28T18:16:33.490Z,94763.34
2023-04-28T18:18:35.771Z,94763.16
2023-04-28T18:20:37.462Z,94776.25
2023-04-28T18:22:39.301Z,94774.34
2023-04-28T18:24:40.900Z,94779.22
2023-04-28T18:26:42.518Z,94785.31
2023-04-28T18:28:47.998Z,94778.34
2023-04-28T18:30:49.763Z,94789.72
2023-04-28T18:32:52.197Z,94790.91
2023-04-28T18:34:53.906Z,94789.44
2023-04-28T18:36:55.569Z,94789.81
2023-04-28T18:38:57.732Z,94793.91
2023-04-28T18:40:59.404Z,94789.44
2023-04-28T18:43:02.263Z,94792.31
2023-04-28T18:45:08.072Z,94793.72
2023-04-28T18:47:09.704Z,94787.78
2023-04-28T18:49:12.696Z,94791.91
2023-04-28T18:51:14.343Z,94787.50
2023-04-28T18:53:15.947Z,94790.94
2023-04-28T18:55:17.621Z,94795.03
2023-04-28T18:57:19.336Z,94793.88
2023-04-28T18:59:20.993Z,94794.50
2023-04-28T19:01:24.719Z,94792.91
2023-04-28T19:03:26.736Z,94799.84
2023-04-28T19:05:29.501Z,94804.31
2023-04-28T19:07:31.618Z,94803.53
2023-04-28T19:09:33.658Z,94800.91
2023-04-28T19:11:35.370Z,94805.97
2023-04-28T19:13:37.796Z,94803.19
2023-04-28T19:15:39.449Z,94803.47
2023-04-28T19:17:41.128Z,94795.72
2023-04-28T19:19:43.516Z,94798.53
2023-04-28T19:21:45.381Z,94798.47
2023-04-28T19:23:48.249Z,94788.94
2023-04-28T19:25:49.929Z,94795.13
2023-04-28T19:27:51.554Z,94797.25
2023-04-28T19:29:54.244Z,94796.06
2023-04-28T19:31:56.254Z,94800.19
2023-04-28T19:33:57.993Z,94803.28
2023-04-28T19:36:00.261Z,94800.13
2023-04-28T19:38:01.877Z,94797.19
2023-04-28T19:40:07.474Z,94803.59
2023-04-28T19:42:09.897Z,94790.94
2023-04-28T19:44:11.724Z,94797.06
2023-04-28T19:46:13.821Z,94792.13
2023-04-28T19:48:15.456Z,94787.22
2023-04-28T19:50:18.756Z,94787.53
2023-04-28T19:52:21.445Z,94787.72
2023-04-28T19:54:23.619Z,94791.50
2023-04-28T19:56:25.239Z,94787.28
2023-04-28T19:58:26.846Z,94780.06
2023-04-28T20:00:32.287Z,94790.78
2023-04-28T20:02:34.392Z,94785.72
2023-04-28T20:04:37.915Z,94785.56
2023-04-28T20:06:40.258Z,94788.06
2023-04-28T20:08:42.139Z,94785.59
2023-04-28T20:10:43.801Z,94775.63
2023-04-28T20:12:45.434Z,94783.84
2023-04-28T20:14:47.124Z,94780.56
2023-04-28T20:16:49.480Z,94773.50
2023-04-28T20:18:51.564Z,94775.31
2023-04-28T20:20:53.739Z,94775.16
2023-04-28T20:22:55.296Z,94773.34
2023-04-28T20:25:00.410Z,94769.91
2023-04-28T20:27:03.500Z,94774.00
2023-04-28T20:29:07.264Z,94773.72
2023-04-28T20:31:10.576Z,94773.53
2023-04-28T20:33:13.044Z,94769.13
2023-04-28T20:35:14.641Z,94772.06
2023-04-28T20:37:16.732Z,94767.97
2023-04-28T20:39:18.605Z,94764.69
2023-04-28T20:41:21.655Z,94768.31
2023-04-28T20:43:24.145Z,94765.34
2023-04-28T20:45:25.837Z,94762.06
2023-04-28T20:47:27.430Z,94761.91
2023-04-28T20:49:29.126Z,94758.47
2023-04-28T20:51:33.663Z,94768.16
2023-04-28T20:53:35.268Z,94768.81
2023-04-28T20:55:36.841Z,94764.53
2023-04-28T20:57:38.414Z,94761.75
2023-04-28T20:59:40.013Z,94752.06
2023-04-28T21:01:41.611Z,94761.25
2023-04-28T21:03:43.581Z,94765.53
2023-04-28T21:05:46.536Z,94765.03
2023-04-28T21:07:48.150Z,94756.00
2023-04-28T21:09:50.041Z,94762.56
2023-04-28T21:11:51.895Z,94756.50
2023-04-28T21:13:53.520Z,94772.06
2023-04-28T21:15:55.339Z,94763.06
2023-04-28T21:17:56.898Z,94763.22
2023-04-28T21:19:58.513Z,94762.72
2023-04-28T21:22:00.248Z,94765.84
2023-04-28T21:24:01.998Z,94754.38
2023-04-28T21:26:04.527Z,94766.66
2023-04-28T21:28:06.218Z,94762.56
2023-04-28T21:30:08.361Z,94764.53
2023-04-28T21:32:10.081Z,94758.63
2023-04-28T21:34:11.691Z,94761.25
2023-04-28T21:36:13.561Z,94752.72
2023-04-28T21:38:15.644Z,94755.53
2023-04-28T21:40:19.438Z,94759.63
2023-04-28T21:42:21.343Z,94746.00
2023-04-28T21:44:24.035Z,94755.03
2023-04-28T21:46:25.802Z,94752.06
2023-04-28T21:48:27.459Z,94756.34
2023-04-28T21:50:29.094Z,94752.25
2023-04-28T21:52:31.058Z,94752.06
2023-04-28T21:54:32.617Z,94759.59
2023-04-28T21:56:34.417Z,94746.81
2023-04-28T21:58:36.320Z,94741.41
2023-04-28T22:00:44.018Z,94754.81
2023-04-28T22:02:45.904Z,94750.38
2023-04-28T22:04:47.724Z,94751.50
2023-04-28T22:06:49.567Z,94752.78
2023-04-28T22:08:51.234Z,94746.75
2023-04-28T22:10:52.811Z,94743.78
2023-04-28T22:12:54.438Z,94745.09
2023-04-28T22:14:56.111Z,94750.19
2023-04-28T22:16:58.532Z,94749.19
2023-04-28T22:19:00.174Z,94738.41
2023-04-28T22:21:01.843Z,94740.03
2023-04-28T22:23:03.645Z,94743.97
2023-04-28T22:25:05.794Z,94742.97
2023-04-28T22:27:07.461Z,94746.75
2023-04-28T22:29:09.137Z,94743.44
2023-04-28T22:31:10.830Z,94746.00
2023-04-28T22:33:12.472Z,94743.06
2023-04-28T22:35:14.157Z,94742.06
2023-04-28T22:37:15.731Z,94743.41
2023-04-28T22:39:17.341Z,94740.56
2023-04-28T22:41:18.873Z,94735.13
2023-04-28T22:43:20.442Z,94735.25
2023-04-28T22:45:22.122Z,94740.00
2023-04-28T22:47:23.764Z,94729.94
2023-04-28T22:49:28.552Z,94724.88
2023-04-28T22:51:31.560Z,94723.13
2023-04-28T22:53:34.646Z,94724.47
2023-04-28T22:55:36.299Z,94720.72
2023-04-28T22:57:37.923Z,94714.13
2023-04-28T22:59:39.573Z,94707.34
2023-04-28T23:01:41.402Z,94703.31
2023-04-28T23:03:43.328Z,94707.22
2023-04-28T23:05:47.040Z,94708.63
2023-04-28T23:07:49.193Z,94710.34
2023-04-28T23:09:51.188Z,94702.22
2023-04-28T23:11:52.958Z,94705.88
2023-04-28T23:13:54.548Z,94704.72
2023-04-28T23:15:59.139Z,94695.75
2023-04-28T23:18:00.947Z,94707.06
2023-04-28T23:20:03.622Z,94697.19
2023-04-28T23:22:08.699Z,94699.22
2023-04-28T23:24:10.296Z,94694.59
2023-04-28T23:26:12.089Z,94703.03
2023-04-28T23:28:13.724Z,94688.84
2023-04-28T23:30:15.514Z,94694.25
2023-04-28T23:32:17.145Z,94694.28
2023-04-28T23:34:19.256Z,94688.34
2023-04-28T23:36:20.851Z,94699.41
2023-04-28T23:38:22.410Z,94694.25
2023-04-28T23:40:24.104Z,94687.97
2023-04-28T23:42:27.031Z,94684.91
2023-04-28T23:44:28.702Z,94687.63
2023-04-28T23:46:30.984Z,94682.50
2023-04-28T23:48:33.025Z,94680.41
2023-04-28T23:50:34.625Z,94682.75
2023-04-28T23:52:40.476Z,94683.69
2023-04-28T23:54:42.148Z,94685.41
2023-04-28T23:56:44.019Z,94682.41
2023-04-28T23:58:45.698Z,94683.19
